createdAt,value
2017-06-23T04:00:41.193Z,724
2017-06-23T04:01:06.663Z,720
2017-06-23T04:01:32.124Z,720
2017-06-23T04:01:57.613Z,728
2017-06-23T04:02:23.101Z,732
2017-06-23T04:02:48.607Z,744
2017-06-23T04:03:14.065Z,756
2017-06-23T04:03:39.523Z,764
2017-06-23T04:04:04.954Z,792
2017-06-23T04:04:30.433Z,808
2017-06-23T04:04:55.918Z,824
2017-06-23T04:05:21.392Z,840
2017-06-23T04:05:46.857Z,860
2017-06-23T04:06:12.346Z,876
2017-06-23T04:06:37.815Z,908
2017-06-23T04:07:03.284Z,944
2017-06-23T04:07:28.760Z,988
2017-06-23T04:07:54.256Z,1036
2017-06-23T04:08:19.749Z,1096
2017-06-23T04:08:45.221Z,1148
2017-06-23T04:09:10.704Z,1188
2017-06-23T04:09:36.187Z,1232
2017-06-23T04:10:01.658Z,1272
2017-06-23T04:10:27.181Z,1320
2017-06-23T04:10:52.644Z,1364
2017-06-23T04:11:18.123Z,1396
2017-06-23T04:11:43.646Z,1420
2017-06-23T04:12:09.099Z,1440
2017-06-23T04:12:34.599Z,1460
2017-06-23T04:13:00.101Z,1460
2017-06-23T04:13:25.562Z,1448
2017-06-23T04:13:51.064Z,1436
2017-06-23T04:14:16.534Z,1412
2017-06-23T04:14:41.985Z,1376
2017-06-23T04:15:07.444Z,1336
2017-06-23T04:15:32.984Z,1308
2017-06-23T04:15:58.446Z,1280
2017-06-23T04:16:23.898Z,1256
2017-06-23T04:17:47.377Z,1200
2017-06-23T04:18:12.826Z,1180
2017-06-23T04:18:38.285Z,1168
2017-06-23T04:19:03.743Z,1140
2017-06-23T04:19:29.208Z,1124
2017-06-23T04:19:54.667Z,1108
2017-06-23T04:20:20.213Z,1096
2017-06-23T04:20:45.704Z,1084
2017-06-23T04:21:11.196Z,1100
2017-06-23T04:21:36.701Z,1124
2017-06-23T04:22:02.210Z,1156
2017-06-23T04:22:27.696Z,1188
2017-06-23T04:22:53.155Z,1220
2017-06-23T04:23:18.627Z,1260
2017-06-23T04:23:44.098Z,1320
2017-06-23T04:24:09.609Z,1400
2017-06-23T04:24:35.065Z,1508
2017-06-23T04:25:00.508Z,1624
2017-06-23T04:25:25.977Z,1716
2017-06-23T04:25:51.472Z,1844
2017-06-23T04:26:16.938Z,1932
2017-06-23T04:26:42.413Z,1964
2017-06-23T04:27:07.892Z,1988
2017-06-23T04:27:33.339Z,2008
2017-06-23T04:27:58.806Z,2056
2017-06-23T04:28:24.333Z,2132
2017-06-23T04:28:49.792Z,2176
2017-06-23T04:29:15.311Z,2192
2017-06-23T04:29:40.756Z,2204
2017-06-23T04:30:06.222Z,2224
2017-06-23T04:30:31.714Z,2212
2017-06-23T04:30:57.199Z,2240
2017-06-23T04:31:22.646Z,2288
2017-06-23T04:31:48.122Z,2320
2017-06-23T04:32:13.583Z,2284
2017-06-23T04:32:39.043Z,2272
2017-06-23T04:33:04.542Z,2220
2017-06-23T04:33:30.024Z,2172
2017-06-23T04:33:55.493Z,2144
2017-06-23T04:34:20.943Z,2120
2017-06-23T04:34:46.447Z,2076
2017-06-23T04:35:11.912Z,2080
2017-06-23T04:35:37.391Z,2112
2017-06-23T04:36:02.833Z,2132
2017-06-23T04:36:28.320Z,2136
2017-06-23T04:36:53.809Z,2124
2017-06-23T04:37:19.278Z,2136
2017-06-23T04:37:44.775Z,1992
2017-06-23T04:38:10.254Z,1984
2017-06-23T04:38:35.707Z,1940
2017-06-23T04:39:01.203Z,1956
2017-06-23T04:39:26.657Z,2032
2017-06-23T04:39:52.158Z,2024
2017-06-23T04:40:17.601Z,2004
2017-06-23T04:40:43.078Z,2060
2017-06-23T04:41:08.570Z,2108
2017-06-23T04:41:34.034Z,2032
2017-06-23T04:41:59.530Z,2208
2017-06-23T04:42:25.023Z,2280
2017-06-23T04:42:50.473Z,2372
2017-06-23T04:43:15.918Z,2236
2017-06-23T04:43:41.418Z,2292
2017-06-23T04:44:06.891Z,2444
2017-06-23T04:44:32.348Z,2516
2017-06-23T04:44:57.841Z,2532
2017-06-23T04:45:23.337Z,2568
2017-06-23T04:45:48.785Z,2520
2017-06-23T04:46:14.244Z,2536
2017-06-23T04:46:39.713Z,2576
2017-06-23T04:47:05.219Z,2576
2017-06-23T04:47:30.692Z,2560
2017-06-23T04:47:56.196Z,2520
2017-06-23T04:48:21.656Z,2500
2017-06-23T04:48:47.125Z,2528
2017-06-23T04:49:12.579Z,2576
2017-06-23T04:49:38.061Z,2612
2017-06-23T04:50:03.527Z,2524
2017-06-23T04:50:28.997Z,2360
2017-06-23T04:50:54.478Z,2180
2017-06-23T04:51:19.962Z,1776
2017-06-23T04:51:45.492Z,1820
2017-06-23T04:52:10.926Z,1836
2017-06-23T04:52:36.385Z,1880
2017-06-23T04:53:01.838Z,2056
2017-06-23T04:53:27.328Z,2260
2017-06-23T04:53:52.814Z,2140
2017-06-23T04:54:18.271Z,1944
2017-06-23T04:54:43.742Z,2008
2017-06-23T04:55:09.221Z,2036
2017-06-23T04:55:34.743Z,2384
2017-06-23T04:56:00.207Z,2320
2017-06-23T04:56:25.715Z,2064
2017-06-23T04:56:51.240Z,2840
2017-06-23T04:57:16.714Z,3044
2017-06-23T04:57:42.182Z,3236
2017-06-23T04:58:07.660Z,2828
2017-06-23T04:58:33.121Z,2544
2017-06-23T04:58:58.609Z,2700
2017-06-23T04:59:24.117Z,2536
2017-06-23T04:59:49.527Z,2420
2017-06-23T05:00:15.012Z,2800
2017-06-23T05:00:40.526Z,3224
2017-06-23T05:01:06.011Z,2908
2017-06-23T05:01:31.502Z,2772
2017-06-23T05:01:56.980Z,2800
2017-06-23T05:02:22.481Z,2800
2017-06-23T05:02:47.937Z,2832
2017-06-23T05:03:13.396Z,2956
2017-06-23T05:03:38.855Z,2828
2017-06-23T05:04:04.334Z,2868
2017-06-23T05:04:29.817Z,2812
2017-06-23T05:04:55.285Z,2868
2017-06-23T05:05:20.751Z,2648
2017-06-23T05:05:46.226Z,2220
2017-06-23T05:06:11.673Z,2052
2017-06-23T05:06:37.161Z,2172
2017-06-23T05:07:02.622Z,2456
2017-06-23T05:07:28.110Z,2540
2017-06-23T05:07:53.582Z,2736
2017-06-23T05:08:19.059Z,2788
2017-06-23T05:08:44.528Z,2296
2017-06-23T05:09:10.027Z,2196
2017-06-23T05:09:35.510Z,1788
2017-06-23T05:10:00.971Z,1580
2017-06-23T05:10:26.431Z,1784
2017-06-23T05:10:51.904Z,1688
2017-06-23T05:11:17.365Z,1660
2017-06-23T05:11:42.825Z,1832
2017-06-23T05:12:08.302Z,2224
2017-06-23T05:12:33.754Z,2608
2017-06-23T05:12:59.233Z,2884
2017-06-23T05:13:24.713Z,4216
2017-06-23T05:13:50.174Z,4472
2017-06-23T05:14:15.636Z,3780
2017-06-23T05:14:41.117Z,3604
2017-06-23T05:15:06.572Z,3712
2017-06-23T05:15:32.044Z,3500
2017-06-23T05:15:57.498Z,3576
2017-06-23T05:16:22.981Z,3080
2017-06-23T05:16:48.428Z,3120
2017-06-23T05:17:13.893Z,3972
2017-06-23T05:17:39.383Z,4076
2017-06-23T05:18:04.859Z,4500
2017-06-23T05:18:30.348Z,4544
2017-06-23T05:18:55.833Z,4076
2017-06-23T05:19:21.307Z,4408
2017-06-23T05:19:46.787Z,4520
2017-06-23T05:20:12.278Z,4136
2017-06-23T05:20:37.745Z,4092
2017-06-23T05:21:03.219Z,3616
2017-06-23T05:21:28.667Z,3388
2017-06-23T05:21:54.163Z,3816
2017-06-23T05:22:19.627Z,3960
2017-06-23T05:22:45.106Z,4064
2017-06-23T05:23:10.567Z,3952
2017-06-23T05:23:36.041Z,3932
2017-06-23T05:24:01.505Z,3940
2017-06-23T05:24:26.986Z,3840
2017-06-23T05:24:52.449Z,3788
2017-06-23T05:25:17.909Z,3700
2017-06-23T05:25:43.431Z,2904
2017-06-23T05:26:08.913Z,4324
2017-06-23T05:26:34.353Z,5164
2017-06-23T05:26:59.815Z,5544
2017-06-23T05:27:25.290Z,6144
2017-06-23T05:27:50.815Z,6152
2017-06-23T05:28:16.244Z,5944
2017-06-23T05:28:41.726Z,5752
2017-06-23T05:29:07.218Z,5484
2017-06-23T05:29:32.672Z,5012
2017-06-23T05:29:58.175Z,3964
2017-06-23T05:30:23.620Z,4260
2017-06-23T05:30:49.091Z,3636
2017-06-23T05:31:14.550Z,2912
2017-06-23T05:31:40.041Z,2500
2017-06-23T05:32:05.548Z,1976
2017-06-23T05:32:31.019Z,1984
2017-06-23T05:32:56.514Z,2156
2017-06-23T05:33:21.990Z,2276
2017-06-23T05:33:47.502Z,2528
2017-06-23T05:34:12.994Z,3092
2017-06-23T05:34:38.487Z,4388
2017-06-23T05:35:03.975Z,5056
2017-06-23T05:35:29.430Z,5164
2017-06-23T05:35:54.896Z,5172
2017-06-23T05:36:20.381Z,4692
2017-06-23T05:36:45.883Z,4264
2017-06-23T05:37:11.350Z,3576
2017-06-23T05:37:36.824Z,3300
2017-06-23T05:38:02.340Z,3100
2017-06-23T05:38:27.783Z,3256
2017-06-23T05:38:53.283Z,3836
2017-06-23T05:39:18.808Z,4340
2017-06-23T05:39:44.259Z,4616
2017-06-23T05:40:09.769Z,4780
2017-06-23T05:40:35.245Z,4624
2017-06-23T05:41:00.732Z,5456
2017-06-23T05:41:26.207Z,5448
2017-06-23T05:41:51.685Z,5044
2017-06-23T05:42:17.175Z,4892
2017-06-23T05:42:42.652Z,4744
2017-06-23T05:43:08.131Z,5152
2017-06-23T05:43:33.603Z,5176
2017-06-23T05:43:59.068Z,5404
2017-06-23T05:44:24.607Z,5948
2017-06-23T05:44:50.084Z,5516
2017-06-23T05:45:15.552Z,4652
2017-06-23T05:45:41.048Z,3832
2017-06-23T05:46:06.494Z,4416
2017-06-23T05:46:31.963Z,4592
2017-06-23T05:46:57.411Z,4952
2017-06-23T05:47:22.909Z,5024
2017-06-23T05:47:48.386Z,5028
2017-06-23T05:48:13.859Z,5040
2017-06-23T05:48:39.369Z,5368
2017-06-23T05:49:04.824Z,5608
2017-06-23T05:49:30.298Z,5828
2017-06-23T05:49:55.797Z,6312
2017-06-23T05:50:21.257Z,6520
2017-06-23T05:50:46.688Z,6440
2017-06-23T05:51:12.182Z,5620
2017-06-23T05:51:37.661Z,5940
2017-06-23T05:52:03.107Z,5584
2017-06-23T05:52:28.560Z,5492
2017-06-23T05:52:54.015Z,5192
2017-06-23T05:53:19.505Z,4668
2017-06-23T05:53:44.973Z,4012
2017-06-23T05:54:10.514Z,3700
2017-06-23T05:54:35.964Z,3956
2017-06-23T05:55:01.422Z,4136
2017-06-23T05:55:26.921Z,3880
2017-06-23T05:55:52.444Z,3844
2017-06-23T05:56:17.965Z,3984
2017-06-23T05:56:43.427Z,4284
2017-06-23T05:57:08.931Z,4628
2017-06-23T05:57:34.439Z,4752
2017-06-23T05:57:59.924Z,5148
2017-06-23T05:58:25.406Z,4756
2017-06-23T05:58:50.888Z,4112
2017-06-23T05:59:16.340Z,4732
2017-06-23T05:59:41.824Z,4432
2017-06-23T06:00:07.281Z,4124
2017-06-23T06:00:32.785Z,4872
2017-06-23T06:00:58.261Z,6136
2017-06-23T06:01:23.741Z,6840
2017-06-23T06:01:49.204Z,6836
2017-06-23T06:02:14.697Z,6492
2017-06-23T06:02:40.127Z,5544
2017-06-23T06:03:05.581Z,5388
2017-06-23T06:03:31.049Z,5432
2017-06-23T06:03:56.568Z,5768
2017-06-23T06:04:22.046Z,5868
2017-06-23T06:04:47.488Z,5660
2017-06-23T06:05:12.979Z,4492
2017-06-23T06:05:38.464Z,4732
2017-06-23T06:06:03.925Z,5228
2017-06-23T06:06:29.392Z,5804
2017-06-23T06:06:54.843Z,4888
2017-06-23T06:07:20.317Z,6176
2017-06-23T06:07:45.803Z,8080
2017-06-23T06:08:11.273Z,6540
2017-06-23T06:08:36.752Z,4596
2017-06-23T06:09:02.204Z,4776
2017-06-23T06:09:27.657Z,4344
2017-06-23T06:09:53.136Z,3596
2017-06-23T06:10:18.623Z,3996
2017-06-23T06:10:44.117Z,4696
2017-06-23T06:11:09.607Z,5084
2017-06-23T06:11:35.119Z,5240
2017-06-23T06:12:00.577Z,5744
2017-06-23T06:12:26.093Z,6404
2017-06-23T06:12:51.585Z,7476
2017-06-23T06:13:17.140Z,8128
2017-06-23T06:13:42.603Z,8916
2017-06-23T06:14:08.102Z,8924
2017-06-23T06:14:33.551Z,9148
2017-06-23T06:14:59.007Z,9964
2017-06-23T06:15:24.492Z,10176
2017-06-23T06:15:49.985Z,9720
2017-06-23T06:16:15.497Z,9540
2017-06-23T06:16:40.920Z,9248
2017-06-23T06:17:06.443Z,9280
2017-06-23T06:17:31.931Z,9688
2017-06-23T06:17:57.377Z,9272
2017-06-23T06:18:22.825Z,9088
2017-06-23T06:18:48.295Z,7776
2017-06-23T06:19:13.834Z,7808
2017-06-23T06:19:39.308Z,7388
2017-06-23T06:20:04.777Z,6880
2017-06-23T06:20:30.247Z,6072
2017-06-23T06:20:55.735Z,5780
2017-06-23T06:21:21.219Z,5976
2017-06-23T06:21:46.698Z,6308
2017-06-23T06:22:12.191Z,6492
2017-06-23T06:22:37.669Z,6672
2017-06-23T06:23:03.162Z,6836
2017-06-23T06:23:28.619Z,6908
2017-06-23T06:23:54.107Z,6836
2017-06-23T06:24:19.573Z,6760
2017-06-23T06:25:43.565Z,5932
2017-06-23T06:26:09.041Z,5732
2017-06-23T06:26:34.541Z,5568
2017-06-23T06:27:00.002Z,5420
2017-06-23T06:27:25.466Z,5384
2017-06-23T06:27:50.924Z,5188
2017-06-23T06:28:16.411Z,4488
2017-06-23T06:28:41.868Z,4356
2017-06-23T06:29:07.325Z,4604
2017-06-23T06:29:32.799Z,4440
2017-06-23T06:29:58.302Z,4388
2017-06-23T06:30:23.785Z,4676
2017-06-23T06:30:49.237Z,5056
2017-06-23T06:31:14.773Z,5076
2017-06-23T06:31:40.255Z,5112
2017-06-23T06:32:05.718Z,6112
2017-06-23T06:32:31.220Z,5720
2017-06-23T06:32:56.657Z,4848
2017-06-23T06:33:22.148Z,5640
2017-06-23T06:33:47.668Z,6472
2017-06-23T06:34:13.136Z,5888
2017-06-23T06:34:38.578Z,5000
2017-06-23T06:35:04.082Z,5192
2017-06-23T06:35:29.528Z,6080
2017-06-23T06:35:54.969Z,5616
2017-06-23T06:36:20.444Z,5444
2017-06-23T06:36:45.899Z,6608
2017-06-23T06:37:11.402Z,6992
2017-06-23T06:37:36.870Z,7552
2017-06-23T06:38:02.326Z,7792
2017-06-23T06:38:27.837Z,6896
2017-06-23T06:38:53.290Z,6816
2017-06-23T06:39:18.783Z,6216
2017-06-23T06:39:44.289Z,6864
2017-06-23T06:40:09.736Z,6876
2017-06-23T06:40:35.192Z,6700
2017-06-23T06:41:00.631Z,6588
2017-06-23T06:41:26.133Z,6768
2017-06-23T06:41:51.584Z,6660
2017-06-23T06:42:17.050Z,6736
2017-06-23T06:42:42.508Z,7180
2017-06-23T06:43:07.966Z,7408
2017-06-23T06:43:33.450Z,7620
2017-06-23T06:43:58.947Z,7420
2017-06-23T06:44:24.421Z,7004
2017-06-23T06:44:49.896Z,6772
2017-06-23T06:45:15.440Z,5312
2017-06-23T06:45:40.895Z,4760
2017-06-23T06:46:06.344Z,4560
2017-06-23T06:46:31.832Z,4464
2017-06-23T06:46:57.346Z,4436
2017-06-23T06:47:22.858Z,5340
2017-06-23T06:47:48.325Z,4316
2017-06-23T06:48:13.801Z,4024
2017-06-23T06:48:39.291Z,3932
2017-06-23T06:49:04.794Z,4024
2017-06-23T06:49:30.263Z,4580
2017-06-23T06:49:55.731Z,4308
2017-06-23T06:50:21.236Z,4284
2017-06-23T06:50:46.696Z,4096
2017-06-23T06:51:12.208Z,3992
2017-06-23T06:51:37.677Z,4056
2017-06-23T06:52:03.132Z,4028
2017-06-23T06:52:28.614Z,4308
2017-06-23T06:52:54.094Z,4300
2017-06-23T06:53:19.564Z,4156
2017-06-23T06:53:45.076Z,4496
2017-06-23T06:54:10.537Z,4608
2017-06-23T06:54:36.050Z,4748
2017-06-23T06:55:01.669Z,4780
2017-06-23T06:55:27.090Z,4796
2017-06-23T06:55:52.555Z,5476
2017-06-23T06:56:18.065Z,6216
2017-06-23T06:56:43.512Z,7344
2017-06-23T06:57:08.965Z,6136
2017-06-23T06:57:34.446Z,6736
2017-06-23T06:57:59.913Z,5956
2017-06-23T06:58:25.387Z,6000
2017-06-23T06:58:50.875Z,5752
2017-06-23T06:59:16.357Z,5496
2017-06-23T06:59:41.806Z,4900
2017-06-23T07:00:07.261Z,6060
2017-06-23T07:00:32.769Z,7960
2017-06-23T07:00:58.272Z,8564
2017-06-23T07:01:23.722Z,8196
2017-06-23T07:01:49.207Z,7668
2017-06-23T07:02:14.670Z,6832
2017-06-23T07:02:40.160Z,6764
2017-06-23T07:03:05.660Z,6932
2017-06-23T07:03:31.136Z,7324
2017-06-23T07:03:56.624Z,7692
2017-06-23T07:04:22.102Z,7932
2017-06-23T07:04:47.573Z,9204
2017-06-23T07:05:13.066Z,9612
2017-06-23T07:05:38.541Z,9552
2017-06-23T07:06:03.988Z,9264
2017-06-23T07:06:29.500Z,8204
2017-06-23T07:06:54.970Z,7500
2017-06-23T07:07:20.442Z,6808
2017-06-23T07:07:45.910Z,7672
2017-06-23T07:08:11.396Z,7860
2017-06-23T07:08:36.859Z,7908
2017-06-23T07:09:02.326Z,7612
2017-06-23T07:09:27.824Z,7728
2017-06-23T07:09:53.358Z,7984
2017-06-23T07:10:18.837Z,8020
2017-06-23T07:10:44.338Z,8192
2017-06-23T07:11:09.801Z,7532
2017-06-23T07:11:35.341Z,7152
2017-06-23T07:12:00.792Z,6532
2017-06-23T07:12:26.274Z,7556
2017-06-23T07:12:51.769Z,9020
2017-06-23T07:13:17.217Z,10608
2017-06-23T07:13:42.699Z,11352
2017-06-23T07:14:08.161Z,11048
2017-06-23T07:14:33.623Z,10176
2017-06-23T07:14:59.108Z,8560
2017-06-23T07:15:24.588Z,8148
2017-06-23T07:15:51.094Z,7992
2017-06-23T07:16:16.562Z,7372
2017-06-23T07:16:42.064Z,7716
2017-06-23T07:17:07.545Z,7600
2017-06-23T07:17:33.027Z,7612
2017-06-23T07:17:58.522Z,7460
2017-06-23T07:18:24.023Z,8088
2017-06-23T07:18:49.597Z,8968
2017-06-23T07:19:15.115Z,7988
2017-06-23T07:19:40.579Z,7204
2017-06-23T07:20:06.097Z,7360
2017-06-23T07:20:31.630Z,8568
2017-06-23T07:20:57.904Z,10980
2017-06-23T07:21:23.379Z,11088
2017-06-23T07:21:48.874Z,10044
2017-06-23T07:22:14.365Z,9556
2017-06-23T07:22:39.851Z,10616
2017-06-23T07:23:05.330Z,7668
2017-06-23T07:23:30.804Z,7628
2017-06-23T07:23:56.286Z,7756
2017-06-23T07:24:21.789Z,7568
2017-06-23T07:24:47.246Z,7608
2017-06-23T07:25:12.745Z,8268
2017-06-23T07:25:38.293Z,7548
2017-06-23T07:26:03.785Z,7188
2017-06-23T07:26:29.261Z,7416
2017-06-23T07:26:54.745Z,7352
2017-06-23T07:27:20.270Z,6424
2017-06-23T07:27:45.817Z,6448
2017-06-23T07:29:04.729Z,6668
2017-06-23T07:29:30.196Z,6444
2017-06-23T07:29:55.657Z,5916
2017-06-23T07:30:21.115Z,5772
2017-06-23T07:30:46.605Z,6164
2017-06-23T07:31:12.098Z,5528
2017-06-23T07:31:37.588Z,5260
2017-06-23T07:32:03.072Z,5232
2017-06-23T07:32:28.560Z,5744
2017-06-23T07:32:54.034Z,6704
2017-06-23T07:33:19.510Z,6008
2017-06-23T07:33:44.970Z,8556
2017-06-23T07:34:10.441Z,6640
2017-06-23T07:34:35.905Z,5976
2017-06-23T07:35:01.406Z,6476
2017-06-23T07:35:26.891Z,8624
2017-06-23T07:35:52.372Z,8324
2017-06-23T07:36:17.865Z,7900
2017-06-23T07:36:43.352Z,7980
2017-06-23T07:37:08.813Z,7956
2017-06-23T07:37:34.335Z,7780
2017-06-23T07:37:59.826Z,10172
2017-06-23T07:38:25.334Z,6932
2017-06-23T07:38:50.828Z,7944
2017-06-23T07:39:16.313Z,7000
2017-06-23T07:39:41.787Z,4912
2017-06-23T07:40:07.300Z,6276
2017-06-23T07:40:32.734Z,7736
2017-06-23T07:40:58.221Z,10112
2017-06-23T07:41:23.708Z,6936
2017-06-23T07:41:49.177Z,8300
2017-06-23T07:42:14.721Z,9076
2017-06-23T07:42:40.184Z,8784
2017-06-23T07:43:05.663Z,8696
2017-06-23T07:43:31.135Z,10116
2017-06-23T07:43:56.651Z,12196
2017-06-23T07:44:22.114Z,11604
2017-06-23T07:44:47.612Z,9116
2017-06-23T07:45:13.078Z,7080
2017-06-23T07:45:38.532Z,4788
2017-06-23T07:46:04.009Z,4276
2017-06-23T07:46:29.518Z,4676
2017-06-23T07:46:54.974Z,6308
2017-06-23T07:47:20.471Z,8940
2017-06-23T07:47:45.951Z,10420
2017-06-23T07:48:11.475Z,9180
2017-06-23T07:48:36.950Z,8048
2017-06-23T07:49:02.412Z,6076
2017-06-23T07:49:27.907Z,5632
2017-06-23T07:49:53.396Z,5720
2017-06-23T07:50:18.799Z,6396
2017-06-23T07:50:44.253Z,7104
2017-06-23T07:51:09.769Z,7148
2017-06-23T07:51:35.235Z,7672
2017-06-23T07:52:00.708Z,6272
2017-06-23T07:52:26.182Z,6264
2017-06-23T07:52:51.682Z,6188
2017-06-23T07:53:17.182Z,5692
2017-06-23T07:53:42.636Z,6128
2017-06-23T07:54:08.137Z,6856
2017-06-23T07:54:33.658Z,8176
2017-06-23T07:54:59.172Z,6548
2017-06-23T07:55:24.630Z,7744
2017-06-23T07:55:50.116Z,8556
2017-06-23T07:56:15.609Z,9236
2017-06-23T07:56:41.117Z,9676
2017-06-23T07:57:06.637Z,8960
2017-06-23T07:57:32.165Z,8228
2017-06-23T07:57:57.632Z,9056
2017-06-23T07:58:23.090Z,9072
2017-06-23T07:58:48.571Z,10780
2017-06-23T07:59:14.052Z,9884
2017-06-23T07:59:39.518Z,8648
2017-06-23T08:00:05.008Z,7768
2017-06-23T08:00:30.474Z,7956
2017-06-23T08:00:55.956Z,6536
2017-06-23T08:01:21.448Z,8820
2017-06-23T08:01:46.915Z,9228
2017-06-23T08:02:12.433Z,10604
2017-06-23T08:02:37.935Z,11444
2017-06-23T08:03:03.412Z,11256
2017-06-23T08:03:28.906Z,10716
2017-06-23T08:03:54.370Z,9808
2017-06-23T08:04:19.862Z,9116
2017-06-23T08:04:45.352Z,9640
2017-06-23T08:05:10.836Z,11036
2017-06-23T08:05:36.298Z,10668
2017-06-23T08:06:01.753Z,9296
2017-06-23T08:06:27.245Z,6992
2017-06-23T08:06:52.695Z,8080
2017-06-23T08:07:18.187Z,10324
2017-06-23T08:07:43.687Z,10168
2017-06-23T08:08:09.198Z,9932
2017-06-23T08:08:34.656Z,11108
2017-06-23T08:09:00.141Z,10588
2017-06-23T08:09:25.641Z,10532
2017-06-23T08:09:51.092Z,9136
2017-06-23T08:10:16.617Z,7040
2017-06-23T08:10:42.116Z,8232
2017-06-23T08:11:07.596Z,7772
2017-06-23T08:11:33.084Z,8264
2017-06-23T08:11:58.531Z,6768
2017-06-23T08:12:24.016Z,8816
2017-06-23T08:12:49.482Z,7076
2017-06-23T08:13:14.941Z,7760
2017-06-23T08:13:40.443Z,8840
2017-06-23T08:14:05.928Z,9232
2017-06-23T08:14:31.412Z,8624
2017-06-23T08:14:56.895Z,8876
2017-06-23T08:15:22.396Z,6032
2017-06-23T08:15:47.872Z,5488
2017-06-23T08:16:13.337Z,5416
2017-06-23T08:16:38.837Z,5696
2017-06-23T08:17:04.306Z,7636
2017-06-23T08:17:29.796Z,9452
2017-06-23T08:17:55.327Z,8912
2017-06-23T08:18:20.779Z,6060
2017-06-23T08:18:46.258Z,7448
2017-06-23T08:19:11.775Z,7296
2017-06-23T08:19:37.233Z,7288
2017-06-23T08:20:02.746Z,7392
2017-06-23T08:20:28.229Z,7464
2017-06-23T08:20:53.677Z,8144
2017-06-23T08:21:19.146Z,7824
2017-06-23T08:21:44.643Z,8116
2017-06-23T08:22:10.112Z,7752
2017-06-23T08:22:35.579Z,9596
2017-06-23T08:23:01.086Z,8916
2017-06-23T08:23:26.557Z,7604
2017-06-23T08:23:52.053Z,5492
2017-06-23T08:24:17.554Z,6108
2017-06-23T08:24:43.013Z,7444
2017-06-23T08:25:08.496Z,8544
2017-06-23T08:25:33.973Z,8660
2017-06-23T08:25:59.433Z,10044
2017-06-23T08:26:24.902Z,9436
2017-06-23T08:26:50.326Z,8848
2017-06-23T08:27:15.823Z,8192
2017-06-23T08:27:41.277Z,7916
2017-06-23T08:28:06.728Z,7788
2017-06-23T08:28:32.207Z,5964
2017-06-23T08:28:57.698Z,7340
2017-06-23T08:29:23.146Z,7924
2017-06-23T08:29:48.634Z,8460
2017-06-23T08:30:14.139Z,8812
2017-06-23T08:30:39.611Z,8188
2017-06-23T08:31:05.081Z,7160
2017-06-23T08:31:30.549Z,6548
2017-06-23T08:31:56.042Z,7136
2017-06-23T08:32:21.504Z,9440
2017-06-23T08:32:46.988Z,9232
2017-06-23T08:33:12.439Z,8044
2017-06-23T08:33:37.924Z,5684
2017-06-23T08:34:03.371Z,5568
2017-06-23T08:34:28.847Z,6636
2017-06-23T08:34:54.303Z,7016
2017-06-23T08:35:19.823Z,6564
2017-06-23T08:35:45.302Z,6456
2017-06-23T08:36:10.756Z,6568
2017-06-23T08:36:36.235Z,8740
2017-06-23T08:37:01.693Z,8620
2017-06-23T08:37:27.152Z,7236
2017-06-23T08:37:52.656Z,5344
2017-06-23T08:38:18.141Z,5536
2017-06-23T08:38:43.607Z,6568
2017-06-23T08:39:09.122Z,8100
2017-06-23T08:39:34.546Z,11152
2017-06-23T08:40:00.018Z,11508
2017-06-23T08:40:25.495Z,10860
2017-06-23T08:40:50.961Z,8968
2017-06-23T08:41:16.464Z,9352
2017-06-23T08:41:41.956Z,9456
2017-06-23T08:42:07.438Z,10328
2017-06-23T08:42:32.939Z,11208
2017-06-23T08:42:58.424Z,12380
2017-06-23T08:43:23.912Z,10900
2017-06-23T08:43:49.373Z,10148
2017-06-23T08:44:14.826Z,9352
2017-06-23T08:44:40.312Z,9664
2017-06-23T08:45:05.788Z,9416
2017-06-23T08:45:31.259Z,10412
2017-06-23T08:45:56.753Z,8648
2017-06-23T08:46:22.232Z,6536
2017-06-23T08:46:47.669Z,6112
2017-06-23T08:47:13.147Z,6152
2017-06-23T08:47:38.626Z,6116
2017-06-23T08:48:04.072Z,6296
2017-06-23T08:48:29.561Z,6448
2017-06-23T08:48:55.046Z,6756
2017-06-23T08:49:20.538Z,7588
2017-06-23T08:49:45.975Z,8872
2017-06-23T08:50:11.451Z,9384
2017-06-23T08:50:36.928Z,9256
2017-06-23T08:51:02.387Z,9700
2017-06-23T08:51:27.878Z,8804
2017-06-23T08:51:53.367Z,7660
2017-06-23T08:52:18.849Z,8800
2017-06-23T08:52:44.323Z,10420
2017-06-23T08:53:09.834Z,11372
2017-06-23T08:53:35.334Z,11700
2017-06-23T08:54:00.829Z,11604
2017-06-23T08:54:26.293Z,9668
2017-06-23T08:54:51.785Z,8612
2017-06-23T08:55:17.266Z,8544
2017-06-23T08:55:42.714Z,7800
2017-06-23T08:56:08.190Z,8028
2017-06-23T08:56:33.678Z,8496
2017-06-23T08:56:59.182Z,8592
2017-06-23T08:57:24.663Z,8780
2017-06-23T08:57:50.116Z,8416
2017-06-23T08:58:15.588Z,7788
2017-06-23T08:58:41.052Z,6560
2017-06-23T08:59:06.514Z,5832
2017-06-23T08:59:31.980Z,5832
2017-06-23T08:59:57.454Z,6192
2017-06-23T09:00:22.956Z,6196
2017-06-23T09:00:48.462Z,5792
2017-06-23T09:01:13.953Z,6016
2017-06-23T09:01:39.436Z,7036
2017-06-23T09:02:04.930Z,7688
2017-06-23T09:02:30.409Z,7664
2017-06-23T09:02:55.887Z,6820
2017-06-23T09:03:21.348Z,5836
2017-06-23T09:03:46.822Z,5700
2017-06-23T09:04:12.283Z,5668
2017-06-23T09:04:37.739Z,5928
2017-06-23T09:05:03.249Z,7048
2017-06-23T09:05:28.735Z,7028
2017-06-23T09:05:54.209Z,7500
2017-06-23T09:06:19.672Z,8008
2017-06-23T09:06:45.141Z,8276
2017-06-23T09:07:10.610Z,8676
2017-06-23T09:07:36.071Z,9224
2017-06-23T09:08:01.538Z,10284
2017-06-23T09:08:27.025Z,10708
2017-06-23T09:08:52.499Z,11012
2017-06-23T09:09:17.987Z,10496
2017-06-23T09:09:43.449Z,10532
2017-06-23T09:10:08.942Z,10328
2017-06-23T09:10:34.424Z,10316
2017-06-23T09:10:59.910Z,10640
2017-06-23T09:11:25.394Z,10832
2017-06-23T09:11:50.878Z,11380
2017-06-23T09:12:16.344Z,10976
2017-06-23T09:12:41.823Z,10540
2017-06-23T09:13:07.287Z,9516
2017-06-23T09:13:32.753Z,8752
2017-06-23T09:13:58.215Z,8852
2017-06-23T09:14:23.708Z,9332
2017-06-23T09:14:49.200Z,9524
2017-06-23T09:15:14.696Z,9084
2017-06-23T09:15:40.144Z,8912
2017-06-23T09:16:05.625Z,9280
2017-06-23T09:16:31.078Z,9948
2017-06-23T09:16:56.533Z,10172
2017-06-23T09:17:22.000Z,9728
2017-06-23T09:17:47.491Z,9632
2017-06-23T09:18:12.936Z,8512
2017-06-23T09:18:38.432Z,8040
2017-06-23T09:19:03.941Z,7920
2017-06-23T09:19:29.436Z,8176
2017-06-23T09:19:54.922Z,8940
2017-06-23T09:20:20.409Z,9784
2017-06-23T09:20:45.900Z,10272
2017-06-23T09:21:11.370Z,10512
2017-06-23T09:21:36.900Z,10416
2017-06-23T09:22:02.386Z,11004
2017-06-23T09:22:27.855Z,11336
2017-06-23T09:22:53.319Z,11844
2017-06-23T09:23:18.822Z,11640
2017-06-23T09:23:44.332Z,11832
2017-06-23T09:24:09.745Z,11960
2017-06-23T09:24:35.223Z,11848
2017-06-23T09:25:00.730Z,12384
2017-06-23T09:25:26.247Z,12612
2017-06-23T09:25:51.733Z,13576
2017-06-23T09:26:17.212Z,13760
2017-06-23T09:26:42.723Z,13660
2017-06-23T09:27:08.175Z,12580
2017-06-23T09:27:33.652Z,12020
2017-06-23T09:27:59.102Z,11696
2017-06-23T09:28:24.579Z,11052
2017-06-23T09:28:50.033Z,10984
2017-06-23T09:29:15.490Z,11012
2017-06-23T09:29:40.962Z,10204
2017-06-23T09:30:06.431Z,9072
2017-06-23T09:30:31.920Z,9616
2017-06-23T09:30:57.394Z,10324
2017-06-23T09:31:22.887Z,10032
2017-06-23T09:31:48.377Z,9796
2017-06-23T09:32:13.878Z,9512
2017-06-23T09:32:39.333Z,8732
2017-06-23T09:33:04.821Z,8640
2017-06-23T09:33:30.272Z,8352
2017-06-23T09:33:55.735Z,7976
2017-06-23T09:34:21.214Z,7636
2017-06-23T09:34:46.730Z,6468
2017-06-23T09:35:12.171Z,5904
2017-06-23T09:35:37.633Z,6228
2017-06-23T09:36:03.124Z,6996
2017-06-23T09:36:28.615Z,7612
2017-06-23T09:36:54.086Z,7632
2017-06-23T09:37:19.527Z,6976
2017-06-23T09:37:44.978Z,6752
2017-06-23T09:38:10.433Z,6448
2017-06-23T09:38:35.936Z,6192
2017-06-23T09:39:01.484Z,5584
2017-06-23T09:39:26.960Z,4980
2017-06-23T09:39:52.447Z,4896
2017-06-23T09:40:17.936Z,5320
2017-06-23T09:40:43.412Z,5860
2017-06-23T09:41:08.864Z,6292
2017-06-23T09:41:34.371Z,6968